METAR AND TAF INFORMATION
METAR FOR OIIE
ADDS - METARS form results

(0549 UTC 21 November 2019)
Data provider http://aviationweather.gov/metar/data/
 
METAR text: OIIE 210530Z 30010KT CAVOK 06/01 Q1022
Conditions at: OIIE (IMAM KHOMEINI , IR) observed 0530 UTC 21 November 2019
Temperature: 6.0°C (43°F)
Dewpoint: 1.0°C (34°F) [RH = 70%]
Pressure (altimeter): 30.18 inches Hg (1022.0 mb)
Winds: from the WNW (300 degrees) at 12 MPH (10 knots; 5.1 m/s)
Visibility: 6 or more miles (10+ km)
Ceiling: ceiling and visibility are OK
Clouds: unknown
Weather: no significant weather observed at this time

METAR text: OIIE 210500Z 30008KT CAVOK 05/01 Q1021
Conditions at: OIIE (IMAM KHOMEINI , IR) observed 0500 UTC 21 November 2019
Temperature: 5.0°C (41°F)
Dewpoint: 1.0°C (34°F) [RH = 75%]
Pressure (altimeter): 30.15 inches Hg (1021.0 mb)
Winds: from the WNW (300 degrees) at 9 MPH (8 knots; 4.1 m/s)
Visibility: 6 or more miles (10+ km)
Ceiling: ceiling and visibility are OK
Clouds: unknown
Weather: no significant weather observed at this time

Forecast for: OIIE (IMAM KHOMEINI , IR)
Text: TAF OIIE 202300Z 2100/2206 31008KT 3000 BR SCT025 BKN090
Forecast period: 0000 to 0200 UTC 21 November 2019
Forecast type: FROM: standard forecast or significant change
Winds: from the NW (310 degrees) at 9 MPH (8 knots; 4.1 m/s)
Visibility: 1.86 miles (2.99 km)
Ceiling: 9000 feet AGL
Clouds: scattered clouds at 2500 feet AGL
broken clouds at 9000 feet AGL
Weather: BR  (mist)
Text: BECMG 2102/2103 7000 TEMOI 2103/2109 32018KT
Forecast period: 0200 to 1700 UTC 21 November 2019
Forecast type: BECOMING: Conditions expected to become as follows by 0300 UTC 21 November 2019
Winds: from the NW (320 degrees) at 21 MPH (18 knots; 9.3 m/s)
Visibility: 4 miles (7 km)
Ceiling: 9000 feet AGL
Clouds: scattered clouds at 2500 feet AGL
broken clouds at 9000 feet AGL
Weather: BR  (mist)
Text: BECMG 2117/2118 5000 BR
Forecast period: 1700 UTC 21 November 2019 to 0300 UTC 22 November 2019
Forecast type: BECOMING: Conditions expected to become as follows by 1800 UTC 21 November 2019
Winds: from the NW (320 degrees) at 21 MPH (18 knots; 9.3 m/s)
Visibility: 3 miles (5 km)
Ceiling: 9000 feet AGL
Clouds: scattered clouds at 2500 feet AGL
broken clouds at 9000 feet AGL
Weather: BR  (mist)
Text: BECMG 2203/2205 7000
Forecast period: 0300 to 0600 UTC 22 November 2019
Forecast type: BECOMING: Conditions expected to become as follows by 0500 UTC 22 November 2019
Winds: from the NW (320 degrees) at 21 MPH (18 knots; 9.3 m/s)
Visibility: 4 miles (7 km)
Ceiling: 9000 feet AGL
Clouds: scattered clouds at 2500 feet AGL
broken clouds at 9000 feet AGL
Weather: BR  (mist)

 AIRPORT MAP

 RUNWAY INFORMATION

 AIRPORT FREQUENCIES
Type ATIS Name ATIS Frequency 127.2 MHZ
Type GND Name GND Frequency 121.6 MHZ
Type TWR Name TWR Frequency 118.7 MHZ

 AIRPORT NEAR NAVIGATION AIDS
Type VOR-DME Name Imam Khomeini Frequency 114300 KHZ



2018 Air Astana Virtual Airline